sensor_id;sensor_type;location;lat;lon;timestamp;P1;durP1;ratioP1;P2;durP2;ratioP2
22937;SDS011;11634;42.734;23.298;2023-06-22T00:00:56;11.38;;;10.00;;
22937;SDS011;11634;42.734;23.298;2023-06-22T00:03:22;10.48;;;9.45;;
22937;SDS011;11634;42.734;23.298;2023-06-22T00:05:48;10.40;;;9.30;;
22937;SDS011;11634;42.734;23.298;2023-06-22T00:08:14;11.20;;;9.45;;
22937;SDS011;11634;42.734;23.298;2023-06-22T00:10:39;10.05;;;9.10;;
22937;SDS011;11634;42.734;23.298;2023-06-22T00:13:08;12.43;;;10.30;;
22937;SDS011;11634;42.734;23.298;2023-06-22T00:15:34;11.38;;;10.18;;
22937;SDS011;11634;42.734;23.298;2023-06-22T00:18:00;10.85;;;9.75;;
22937;SDS011;11634;42.734;23.298;2023-06-22T00:20:26;11.43;;;10.20;;
22937;SDS011;11634;42.734;23.298;2023-06-22T00:22:55;10.93;;;9.93;;
22937;SDS011;11634;42.734;23.298;2023-06-22T00:25:21;10.95;;;9.88;;
22937;SDS011;11634;42.734;23.298;2023-06-22T00:27:47;11.93;;;10.70;;
22937;SDS011;11634;42.734;23.298;2023-06-22T00:30:13;11.52;;;10.40;;
22937;SDS011;11634;42.734;23.298;2023-06-22T00:32:39;12.00;;;10.80;;
22937;SDS011;11634;42.734;23.298;2023-06-22T00:35:06;11.73;;;10.52;;
22937;SDS011;11634;42.734;23.298;2023-06-22T00:37:31;11.48;;;10.38;;
22937;SDS011;11634;42.734;23.298;2023-06-22T00:39:58;13.18;;;10.60;;
22937;SDS011;11634;42.734;23.298;2023-06-22T00:42:24;11.35;;;10.10;;
22937;SDS011;11634;42.734;23.298;2023-06-22T00:44:49;11.10;;;10.00;;
22937;SDS011;11634;42.734;23.298;2023-06-22T00:47:19;12.98;;;10.88;;
22937;SDS011;11634;42.734;23.298;2023-06-22T00:49:44;11.90;;;10.38;;
22937;SDS011;11634;42.734;23.298;2023-06-22T00:52:11;11.63;;;10.45;;
22937;SDS011;11634;42.734;23.298;2023-06-22T00:54:42;11.52;;;10.43;;
22937;SDS011;11634;42.734;23.298;2023-06-22T00:57:13;12.98;;;10.63;;
22937;SDS011;11634;42.734;23.298;2023-06-22T00:59:44;11.77;;;10.68;;
22937;SDS011;11634;42.734;23.298;2023-06-22T01:02:10;12.07;;;10.77;;
22937;SDS011;11634;42.734;23.298;2023-06-22T01:04:36;11.95;;;10.85;;
22937;SDS011;11634;42.734;23.298;2023-06-22T01:10:07;10.50;;;9.50;;
22937;SDS011;11634;42.734;23.298;2023-06-22T01:12:38;12.55;;;9.93;;
22937;SDS011;11634;42.734;23.298;2023-06-22T01:15:08;10.57;;;9.65;;
22937;SDS011;11634;42.734;23.298;2023-06-22T01:17:35;9.90;;;8.90;;
22937;SDS011;11634;42.734;23.298;2023-06-22T01:20:01;10.43;;;9.32;;
22937;SDS011;11634;42.734;23.298;2023-06-22T01:22:30;9.90;;;8.90;;
22937;SDS011;11634;42.734;23.298;2023-06-22T01:25:07;10.75;;;8.10;;
22937;SDS011;11634;42.734;23.298;2023-06-22T01:30:07;9.73;;;8.80;;
22937;SDS011;11634;42.734;23.298;2023-06-22T01:32:35;9.70;;;8.90;;
22937;SDS011;11634;42.734;23.298;2023-06-22T01:35:03;10.40;;;9.27;;
22937;SDS011;11634;42.734;23.298;2023-06-22T01:37:33;9.32;;;8.30;;
22937;SDS011;11634;42.734;23.298;2023-06-22T01:39:59;10.05;;;9.05;;
22937;SDS011;11634;42.734;23.298;2023-06-22T01:42:25;10.20;;;9.20;;
22937;SDS011;11634;42.734;23.298;2023-06-22T01:44:54;9.63;;;8.73;;
22937;SDS011;11634;42.734;23.298;2023-06-22T01:47:21;9.52;;;8.65;;
22937;SDS011;11634;42.734;23.298;2023-06-22T01:49:47;11.05;;;9.25;;
22937;SDS011;11634;42.734;23.298;2023-06-22T01:52:13;10.35;;;9.35;;
22937;SDS011;11634;42.734;23.298;2023-06-22T01:54:39;11.05;;;9.35;;
22937;SDS011;11634;42.734;23.298;2023-06-22T01:57:05;10.15;;;9.15;;
22937;SDS011;11634;42.734;23.298;2023-06-22T01:59:39;11.07;;;9.77;;
22937;SDS011;11634;42.734;23.298;2023-06-22T02:02:08;11.00;;;9.95;;
22937;SDS011;11634;42.734;23.298;2023-06-22T02:05:17;10.65;;;9.30;;
22937;SDS011;11634;42.734;23.298;2023-06-22T02:07:23;9.85;;;8.85;;
22937;SDS011;11634;42.734;23.298;2023-06-22T02:09:49;11.40;;;10.20;;
22937;SDS011;11634;42.734;23.298;2023-06-22T02:12:16;10.70;;;9.60;;
22937;SDS011;11634;42.734;23.298;2023-06-22T02:14:43;11.43;;;10.13;;
22937;SDS011;11634;42.734;23.298;2023-06-22T02:17:08;11.70;;;10.50;;
22937;SDS011;11634;42.734;23.298;2023-06-22T02:19:38;11.00;;;10.02;;
22937;SDS011;11634;42.734;23.298;2023-06-22T02:22:04;11.50;;;10.30;;
22937;SDS011;11634;42.734;23.298;2023-06-22T02:24:30;10.90;;;9.82;;
22937;SDS011;11634;42.734;23.298;2023-06-22T02:27:00;12.63;;;10.30;;
22937;SDS011;11634;42.734;23.298;2023-06-22T02:29:26;12.00;;;10.05;;
22937;SDS011;11634;42.734;23.298;2023-06-22T02:31:52;14.55;;;10.43;;
22937;SDS011;11634;42.734;23.298;2023-06-22T02:34:18;11.43;;;10.32;;
22937;SDS011;11634;42.734;23.298;2023-06-22T02:36:45;11.10;;;10.00;;
22937;SDS011;11634;42.734;23.298;2023-06-22T02:39:19;12.07;;;10.38;;
22937;SDS011;11634;42.734;23.298;2023-06-22T02:41:45;11.30;;;10.23;;
22937;SDS011;11634;42.734;23.298;2023-06-22T02:44:10;11.80;;;10.30;;
22937;SDS011;11634;42.734;23.298;2023-06-22T02:46:35;13.18;;;10.88;;
22937;SDS011;11634;42.734;23.298;2023-06-22T02:49:01;11.70;;;10.50;;
22937;SDS011;11634;42.734;23.298;2023-06-22T02:51:27;12.48;;;11.18;;
22937;SDS011;11634;42.734;23.298;2023-06-22T02:53:52;14.20;;;11.25;;
22937;SDS011;11634;42.734;23.298;2023-06-22T02:56:22;11.73;;;10.43;;
22937;SDS011;11634;42.734;23.298;2023-06-22T02:58:53;13.30;;;10.77;;
22937;SDS011;11634;42.734;23.298;2023-06-22T03:01:18;11.45;;;10.45;;
22937;SDS011;11634;42.734;23.298;2023-06-22T03:03:49;11.70;;;10.60;;
22937;SDS011;11634;42.734;23.298;2023-06-22T03:06:16;11.63;;;10.52;;
22937;SDS011;11634;42.734;23.298;2023-06-22T03:08:41;11.70;;;10.50;;
22937;SDS011;11634;42.734;23.298;2023-06-22T03:11:07;11.00;;;10.00;;
22937;SDS011;11634;42.734;23.298;2023-06-22T03:13:33;11.35;;;9.88;;
22937;SDS011;11634;42.734;23.298;2023-06-22T03:15:59;11.20;;;10.07;;
22937;SDS011;11634;42.734;23.298;2023-06-22T03:18:25;11.27;;;9.93;;
22937;SDS011;11634;42.734;23.298;2023-06-22T03:20:51;10.65;;;9.50;;
22937;SDS011;11634;42.734;23.298;2023-06-22T03:23:16;10.27;;;9.30;;
22937;SDS011;11634;42.734;23.298;2023-06-22T03:25:42;11.85;;;9.30;;
22937;SDS011;11634;42.734;23.298;2023-06-22T03:28:10;12.05;;;9.20;;
22937;SDS011;11634;42.734;23.298;2023-06-22T03:30:35;9.70;;;8.70;;
22937;SDS011;11634;42.734;23.298;2023-06-22T03:33:01;9.70;;;8.80;;
22937;SDS011;11634;42.734;23.298;2023-06-22T03:35:26;8.68;;;7.88;;
22937;SDS011;11634;42.734;23.298;2023-06-22T03:37:52;8.93;;;8.02;;
22937;SDS011;11634;42.734;23.298;2023-06-22T03:40:17;8.60;;;7.80;;
22937;SDS011;11634;42.734;23.298;2023-06-22T03:42:43;8.05;;;7.05;;
22937;SDS011;11634;42.734;23.298;2023-06-22T03:45:10;10.70;;;7.82;;
22937;SDS011;11634;42.734;23.298;2023-06-22T03:47:36;9.65;;;8.00;;
22937;SDS011;11634;42.734;23.298;2023-06-22T03:50:02;10.30;;;7.97;;
22937;SDS011;11634;42.734;23.298;2023-06-22T03:52:29;10.55;;;8.88;;
22937;SDS011;11634;42.734;23.298;2023-06-22T03:54:54;13.07;;;8.57;;
22937;SDS011;11634;42.734;23.298;2023-06-22T03:57:25;13.23;;;9.70;;
22937;SDS011;11634;42.734;23.298;2023-06-22T03:59:51;9.80;;;8.85;;
22937;SDS011;11634;42.734;23.298;2023-06-22T04:02:16;9.57;;;8.52;;
22937;SDS011;11634;42.734;23.298;2023-06-22T04:04:42;10.82;;;8.93;;
22937;SDS011;11634;42.734;23.298;2023-06-22T04:07:10;10.25;;;8.43;;
22937;SDS011;11634;42.734;23.298;2023-06-22T04:09:38;10.43;;;9.20;;
22937;SDS011;11634;42.734;23.298;2023-06-22T04:12:04;13.45;;;9.27;;
22937;SDS011;11634;42.734;23.298;2023-06-22T04:14:29;11.27;;;9.30;;
22937;SDS011;11634;42.734;23.298;2023-06-22T04:16:55;11.50;;;9.02;;
22937;SDS011;11634;42.734;23.298;2023-06-22T04:21:58;9.95;;;8.77;;
22937;SDS011;11634;42.734;23.298;2023-06-22T04:24:25;11.70;;;8.70;;
22937;SDS011;11634;42.734;23.298;2023-06-22T04:26:51;12.77;;;9.30;;
22937;SDS011;11634;42.734;23.298;2023-06-22T04:29:20;10.60;;;9.50;;
22937;SDS011;11634;42.734;23.298;2023-06-22T04:31:45;10.60;;;9.55;;
22937;SDS011;11634;42.734;23.298;2023-06-22T04:34:16;11.40;;;10.30;;
22937;SDS011;11634;42.734;23.298;2023-06-22T04:36:42;11.85;;;9.73;;
22937;SDS011;11634;42.734;23.298;2023-06-22T04:39:10;11.88;;;8.85;;
22937;SDS011;11634;42.734;23.298;2023-06-22T04:41:37;12.00;;;9.43;;
22937;SDS011;11634;42.734;23.298;2023-06-22T04:44:09;12.95;;;9.70;;
22937;SDS011;11634;42.734;23.298;2023-06-22T04:46:35;12.18;;;9.40;;
22937;SDS011;11634;42.734;23.298;2023-06-22T04:49:12;10.75;;;9.60;;
22937;SDS011;11634;42.734;23.298;2023-06-22T04:51:41;10.05;;;9.15;;
22937;SDS011;11634;42.734;23.298;2023-06-22T04:54:07;14.32;;;10.40;;
22937;SDS011;11634;42.734;23.298;2023-06-22T04:56:33;14.85;;;10.13;;
22937;SDS011;11634;42.734;23.298;2023-06-22T04:58:58;14.93;;;9.80;;
22937;SDS011;11634;42.734;23.298;2023-06-22T05:01:24;11.77;;;10.50;;
22937;SDS011;11634;42.734;23.298;2023-06-22T05:03:50;14.45;;;11.73;;
22937;SDS011;11634;42.734;23.298;2023-06-22T05:06:16;16.30;;;9.68;;
22937;SDS011;11634;42.734;23.298;2023-06-22T05:08:43;11.10;;;9.40;;
22937;SDS011;11634;42.734;23.298;2023-06-22T05:11:08;11.02;;;9.15;;
22937;SDS011;11634;42.734;23.298;2023-06-22T05:13:36;11.27;;;9.18;;
22937;SDS011;11634;42.734;23.298;2023-06-22T05:16:02;14.05;;;9.32;;
22937;SDS011;11634;42.734;23.298;2023-06-22T05:18:28;11.27;;;9.20;;
22937;SDS011;11634;42.734;23.298;2023-06-22T05:20:54;9.68;;;8.65;;
22937;SDS011;11634;42.734;23.298;2023-06-22T05:23:20;9.20;;;8.30;;
22937;SDS011;11634;42.734;23.298;2023-06-22T05:25:45;8.57;;;7.78;;
22937;SDS011;11634;42.734;23.298;2023-06-22T05:28:11;9.15;;;8.18;;
22937;SDS011;11634;42.734;23.298;2023-06-22T05:30:37;12.88;;;8.38;;
22937;SDS011;11634;42.734;23.298;2023-06-22T05:33:02;12.95;;;8.90;;
22937;SDS011;11634;42.734;23.298;2023-06-22T05:35:27;13.95;;;8.45;;
22937;SDS011;11634;42.734;23.298;2023-06-22T05:37:54;10.80;;;8.55;;
22937;SDS011;11634;42.734;23.298;2023-06-22T05:40:20;10.35;;;8.27;;
22937;SDS011;11634;42.734;23.298;2023-06-22T05:42:45;9.77;;;8.45;;
22937;SDS011;11634;42.734;23.298;2023-06-22T05:45:11;10.05;;;8.90;;
22937;SDS011;11634;42.734;23.298;2023-06-22T05:47:36;12.23;;;9.10;;
22937;SDS011;11634;42.734;23.298;2023-06-22T05:50:02;10.32;;;9.02;;
22937;SDS011;11634;42.734;23.298;2023-06-22T05:52:32;11.98;;;9.13;;
22937;SDS011;11634;42.734;23.298;2023-06-22T05:54:57;11.50;;;8.55;;
22937;SDS011;11634;42.734;23.298;2023-06-22T05:57:32;9.50;;;8.60;;
22937;SDS011;11634;42.734;23.298;2023-06-22T05:59:57;12.45;;;8.98;;
22937;SDS011;11634;42.734;23.298;2023-06-22T06:02:22;12.48;;;9.07;;
22937;SDS011;11634;42.734;23.298;2023-06-22T06:04:48;9.63;;;8.27;;
22937;SDS011;11634;42.734;23.298;2023-06-22T06:07:16;9.32;;;8.43;;
22937;SDS011;11634;42.734;23.298;2023-06-22T06:09:41;11.30;;;8.82;;
22937;SDS011;11634;42.734;23.298;2023-06-22T06:12:07;11.57;;;9.15;;
22937;SDS011;11634;42.734;23.298;2023-06-22T06:14:32;12.25;;;8.90;;
22937;SDS011;11634;42.734;23.298;2023-06-22T06:16:58;14.80;;;9.57;;
22937;SDS011;11634;42.734;23.298;2023-06-22T06:19:23;15.05;;;10.65;;
22937;SDS011;11634;42.734;23.298;2023-06-22T06:21:49;15.40;;;11.05;;
22937;SDS011;11634;42.734;23.298;2023-06-22T06:24:16;14.23;;;10.95;;
22937;SDS011;11634;42.734;23.298;2023-06-22T06:26:41;13.35;;;10.45;;
22937;SDS011;11634;42.734;23.298;2023-06-22T06:29:06;17.48;;;11.80;;
22937;SDS011;11634;42.734;23.298;2023-06-22T06:31:32;14.32;;;12.38;;
22937;SDS011;11634;42.734;23.298;2023-06-22T06:33:58;14.95;;;11.55;;
22937;SDS011;11634;42.734;23.298;2023-06-22T06:36:24;16.63;;;11.73;;
22937;SDS011;11634;42.734;23.298;2023-06-22T06:38:49;12.85;;;10.23;;
22937;SDS011;11634;42.734;23.298;2023-06-22T06:41:16;14.38;;;10.73;;
22937;SDS011;11634;42.734;23.298;2023-06-22T06:43:41;15.07;;;10.75;;
22937;SDS011;11634;42.734;23.298;2023-06-22T06:46:20;13.95;;;9.98;;
22937;SDS011;11634;42.734;23.298;2023-06-22T06:48:48;13.82;;;10.38;;
22937;SDS011;11634;42.734;23.298;2023-06-22T06:51:14;13.90;;;9.70;;
22937;SDS011;11634;42.734;23.298;2023-06-22T06:53:39;11.90;;;10.20;;
22937;SDS011;11634;42.734;23.298;2023-06-22T06:56:05;12.40;;;11.10;;
22937;SDS011;11634;42.734;23.298;2023-06-22T06:58:30;10.60;;;9.60;;
22937;SDS011;11634;42.734;23.298;2023-06-22T07:00:56;12.98;;;10.23;;
22937;SDS011;11634;42.734;23.298;2023-06-22T07:03:24;11.23;;;10.20;;
22937;SDS011;11634;42.734;23.298;2023-06-22T07:05:50;11.63;;;10.38;;
22937;SDS011;11634;42.734;23.298;2023-06-22T07:08:16;12.85;;;9.80;;
22937;SDS011;11634;42.734;23.298;2023-06-22T07:10:41;14.05;;;9.75;;
22937;SDS011;11634;42.734;23.298;2023-06-22T07:13:07;11.27;;;10.05;;
22937;SDS011;11634;42.734;23.298;2023-06-22T07:15:32;14.57;;;10.70;;
22937;SDS011;11634;42.734;23.298;2023-06-22T07:17:57;13.93;;;11.90;;
22937;SDS011;11634;42.734;23.298;2023-06-22T07:20:25;12.13;;;10.48;;
22937;SDS011;11634;42.734;23.298;2023-06-22T07:22:54;15.73;;;10.65;;
22937;SDS011;11634;42.734;23.298;2023-06-22T07:25:19;12.93;;;10.25;;
22937;SDS011;11634;42.734;23.298;2023-06-22T07:27:46;12.38;;;11.18;;
22937;SDS011;11634;42.734;23.298;2023-06-22T07:30:13;16.20;;;10.50;;
22937;SDS011;11634;42.734;23.298;2023-06-22T07:32:39;15.95;;;10.90;;
22937;SDS011;11634;42.734;23.298;2023-06-22T07:35:05;15.00;;;10.45;;
22937;SDS011;11634;42.734;23.298;2023-06-22T07:37:33;14.32;;;10.27;;
22937;SDS011;11634;42.734;23.298;2023-06-22T07:40:00;12.77;;;9.18;;
22937;SDS011;11634;42.734;23.298;2023-06-22T07:42:26;13.93;;;9.52;;
22937;SDS011;11634;42.734;23.298;2023-06-22T07:44:51;10.30;;;9.23;;
22937;SDS011;11634;42.734;23.298;2023-06-22T07:47:24;11.10;;;8.77;;
22937;SDS011;11634;42.734;23.298;2023-06-22T07:49:55;16.40;;;10.00;;
22937;SDS011;11634;42.734;23.298;2023-06-22T07:52:23;10.43;;;9.20;;
22937;SDS011;11634;42.734;23.298;2023-06-22T07:54:49;14.10;;;9.35;;
22937;SDS011;11634;42.734;23.298;2023-06-22T07:57:14;11.20;;;9.32;;
22937;SDS011;11634;42.734;23.298;2023-06-22T07:59:40;11.38;;;9.50;;
22937;SDS011;11634;42.734;23.298;2023-06-22T08:02:05;15.15;;;9.77;;
22937;SDS011;11634;42.734;23.298;2023-06-22T08:04:31;10.23;;;8.60;;
22937;SDS011;11634;42.734;23.298;2023-06-22T08:06:59;10.85;;;9.15;;
22937;SDS011;11634;42.734;23.298;2023-06-22T08:09:24;10.63;;;9.02;;
22937;SDS011;11634;42.734;23.298;2023-06-22T08:11:50;11.35;;;9.10;;
22937;SDS011;11634;42.734;23.298;2023-06-22T08:16:57;9.68;;;8.60;;
22937;SDS011;11634;42.734;23.298;2023-06-22T08:19:22;9.45;;;8.52;;
22937;SDS011;11634;42.734;23.298;2023-06-22T08:21:51;11.50;;;9.40;;
22937;SDS011;11634;42.734;23.298;2023-06-22T08:24:17;10.10;;;9.07;;
22937;SDS011;11634;42.734;23.298;2023-06-22T08:26:46;11.13;;;9.57;;
22937;SDS011;11634;42.734;23.298;2023-06-22T08:29:11;10.02;;;9.13;;
22937;SDS011;11634;42.734;23.298;2023-06-22T08:31:39;10.10;;;9.18;;
22937;SDS011;11634;42.734;23.298;2023-06-22T08:34:08;11.88;;;9.68;;
22937;SDS011;11634;42.734;23.298;2023-06-22T08:36:34;12.82;;;9.32;;
22937;SDS011;11634;42.734;23.298;2023-06-22T08:39:03;10.52;;;9.55;;
22937;SDS011;11634;42.734;23.298;2023-06-22T08:41:28;11.05;;;8.73;;
22937;SDS011;11634;42.734;23.298;2023-06-22T08:43:54;9.73;;;8.80;;
22937;SDS011;11634;42.734;23.298;2023-06-22T08:46:23;11.93;;;9.25;;
22937;SDS011;11634;42.734;23.298;2023-06-22T08:48:56;10.25;;;8.98;;
22937;SDS011;11634;42.734;23.298;2023-06-22T08:51:22;10.57;;;9.50;;
22937;SDS011;11634;42.734;23.298;2023-06-22T08:53:58;10.57;;;9.48;;
22937;SDS011;11634;42.734;23.298;2023-06-22T08:56:24;10.02;;;9.20;;
22937;SDS011;11634;42.734;23.298;2023-06-22T08:58:49;11.38;;;10.18;;
22937;SDS011;11634;42.734;23.298;2023-06-22T09:01:15;12.02;;;9.38;;
22937;SDS011;11634;42.734;23.298;2023-06-22T09:03:41;10.45;;;9.35;;
22937;SDS011;11634;42.734;23.298;2023-06-22T09:06:07;9.93;;;8.93;;
22937;SDS011;11634;42.734;23.298;2023-06-22T09:08:34;9.77;;;8.82;;
22937;SDS011;11634;42.734;23.298;2023-06-22T09:11:00;9.77;;;8.73;;
22937;SDS011;11634;42.734;23.298;2023-06-22T09:13:25;10.73;;;9.68;;
22937;SDS011;11634;42.734;23.298;2023-06-22T09:15:51;11.02;;;9.75;;
22937;SDS011;11634;42.734;23.298;2023-06-22T09:18:17;9.90;;;8.93;;
22937;SDS011;11634;42.734;23.298;2023-06-22T09:20:43;10.00;;;9.00;;
22937;SDS011;11634;42.734;23.298;2023-06-22T09:23:09;9.30;;;8.50;;
22937;SDS011;11634;42.734;23.298;2023-06-22T09:25:34;8.70;;;7.80;;
22937;SDS011;11634;42.734;23.298;2023-06-22T09:28:00;8.32;;;7.63;;
22937;SDS011;11634;42.734;23.298;2023-06-22T09:30:25;8.43;;;7.72;;
22937;SDS011;11634;42.734;23.298;2023-06-22T09:32:51;8.15;;;7.35;;
22937;SDS011;11634;42.734;23.298;2023-06-22T09:35:17;8.30;;;7.60;;
22937;SDS011;11634;42.734;23.298;2023-06-22T09:37:42;7.82;;;7.03;;
22937;SDS011;11634;42.734;23.298;2023-06-22T09:40:08;8.30;;;7.43;;
22937;SDS011;11634;42.734;23.298;2023-06-22T09:42:35;8.13;;;7.13;;
22937;SDS011;11634;42.734;23.298;2023-06-22T09:45:00;8.10;;;6.90;;
22937;SDS011;11634;42.734;23.298;2023-06-22T09:47:27;8.05;;;7.35;;
22937;SDS011;11634;42.734;23.298;2023-06-22T09:49:52;8.20;;;7.45;;
22937;SDS011;11634;42.734;23.298;2023-06-22T09:52:24;8.05;;;7.22;;
22937;SDS011;11634;42.734;23.298;2023-06-22T09:54:49;7.30;;;6.70;;
22937;SDS011;11634;42.734;23.298;2023-06-22T09:57:15;7.75;;;7.05;;
22937;SDS011;11634;42.734;23.298;2023-06-22T09:59:40;8.68;;;7.50;;
22937;SDS011;11634;42.734;23.298;2023-06-22T10:02:06;8.02;;;7.07;;
22937;SDS011;11634;42.734;23.298;2023-06-22T10:07:23;7.95;;;7.25;;
22937;SDS011;11634;42.734;23.298;2023-06-22T10:09:50;8.02;;;7.32;;
22937;SDS011;11634;42.734;23.298;2023-06-22T10:12:16;7.93;;;7.22;;
22937;SDS011;11634;42.734;23.298;2023-06-22T10:14:41;8.63;;;7.82;;
22937;SDS011;11634;42.734;23.298;2023-06-22T10:17:07;8.48;;;7.43;;
22937;SDS011;11634;42.734;23.298;2023-06-22T10:19:32;8.15;;;7.35;;
22937;SDS011;11634;42.734;23.298;2023-06-22T10:21:58;7.53;;;6.93;;
22937;SDS011;11634;42.734;23.298;2023-06-22T10:24:23;8.10;;;7.32;;
22937;SDS011;11634;42.734;23.298;2023-06-22T10:26:49;8.60;;;7.43;;
22937;SDS011;11634;42.734;23.298;2023-06-22T10:29:15;8.55;;;7.35;;
22937;SDS011;11634;42.734;23.298;2023-06-22T10:31:41;7.78;;;6.95;;
22937;SDS011;11634;42.734;23.298;2023-06-22T10:34:06;8.20;;;7.50;;
22937;SDS011;11634;42.734;23.298;2023-06-22T10:36:32;8.15;;;7.35;;
22937;SDS011;11634;42.734;23.298;2023-06-22T10:38:57;8.07;;;7.28;;
22937;SDS011;11634;42.734;23.298;2023-06-22T10:41:24;7.70;;;7.05;;
22937;SDS011;11634;42.734;23.298;2023-06-22T10:43:50;7.55;;;6.90;;
22937;SDS011;11634;42.734;23.298;2023-06-22T10:46:15;8.00;;;7.03;;
22937;SDS011;11634;42.734;23.298;2023-06-22T10:48:40;8.10;;;7.40;;
22937;SDS011;11634;42.734;23.298;2023-06-22T10:51:09;7.90;;;7.18;;
22937;SDS011;11634;42.734;23.298;2023-06-22T10:53:34;7.68;;;6.93;;
22937;SDS011;11634;42.734;23.298;2023-06-22T10:56:00;7.68;;;6.97;;
22937;SDS011;11634;42.734;23.298;2023-06-22T10:58:25;7.65;;;6.82;;
22937;SDS011;11634;42.734;23.298;2023-06-22T11:00:51;7.68;;;6.85;;
22937;SDS011;11634;42.734;23.298;2023-06-22T11:03:17;7.50;;;6.80;;
22937;SDS011;11634;42.734;23.298;2023-06-22T11:05:42;7.35;;;6.72;;
22937;SDS011;11634;42.734;23.298;2023-06-22T11:08:08;9.50;;;7.30;;
22937;SDS011;11634;42.734;23.298;2023-06-22T11:10:33;6.90;;;6.00;;
22937;SDS011;11634;42.734;23.298;2023-06-22T11:12:59;7.30;;;6.60;;
22937;SDS011;11634;42.734;23.298;2023-06-22T11:15:25;7.07;;;6.50;;
22937;SDS011;11634;42.734;23.298;2023-06-22T11:17:50;7.18;;;6.57;;
22937;SDS011;11634;42.734;23.298;2023-06-22T11:20:16;8.10;;;6.55;;
22937;SDS011;11634;42.734;23.298;2023-06-22T11:22:41;8.43;;;6.95;;
22937;SDS011;11634;42.734;23.298;2023-06-22T11:27:54;8.45;;;6.93;;
22937;SDS011;11634;42.734;23.298;2023-06-22T11:30:22;7.43;;;6.72;;
22937;SDS011;11634;42.734;23.298;2023-06-22T11:32:48;7.28;;;6.38;;
22937;SDS011;11634;42.734;23.298;2023-06-22T11:35:13;7.30;;;6.68;;
22937;SDS011;11634;42.734;23.298;2023-06-22T11:37:39;8.88;;;7.05;;
22937;SDS011;11634;42.734;23.298;2023-06-22T11:40:05;7.35;;;6.65;;
22937;SDS011;11634;42.734;23.298;2023-06-22T11:42:32;7.25;;;6.63;;
22937;SDS011;11634;42.734;23.298;2023-06-22T11:44:59;7.50;;;6.80;;
22937;SDS011;11634;42.734;23.298;2023-06-22T12:05:01;8.90;;;8.00;;
22937;SDS011;11634;42.734;23.298;2023-06-22T12:07:30;8.98;;;8.18;;
22937;SDS011;11634;42.734;23.298;2023-06-22T12:09:55;8.27;;;7.57;;
22937;SDS011;11634;42.734;23.298;2023-06-22T12:12:21;9.20;;;8.32;;
22937;SDS011;11634;42.734;23.298;2023-06-22T12:14:47;11.48;;;9.32;;
22937;SDS011;11634;42.734;23.298;2023-06-22T12:17:12;11.43;;;9.23;;
22937;SDS011;11634;42.734;23.298;2023-06-22T12:19:39;15.02;;;11.00;;
22937;SDS011;11634;42.734;23.298;2023-06-22T12:22:06;10.70;;;9.60;;
22937;SDS011;11634;42.734;23.298;2023-06-22T12:24:39;15.65;;;10.52;;
22937;SDS011;11634;42.734;23.298;2023-06-22T12:27:05;13.32;;;11.88;;
22937;SDS011;11634;42.734;23.298;2023-06-22T12:29:30;12.43;;;9.32;;
22937;SDS011;11634;42.734;23.298;2023-06-22T12:31:57;11.93;;;6.57;;
22937;SDS011;11634;42.734;23.298;2023-06-22T12:34:23;8.27;;;7.30;;
22937;SDS011;11634;42.734;23.298;2023-06-22T12:36:48;11.60;;;7.00;;
22937;SDS011;11634;42.734;23.298;2023-06-22T14:09:39;9.57;;;8.38;;
22937;SDS011;11634;42.734;23.298;2023-06-22T14:12:05;15.18;;;8.63;;
22937;SDS011;11634;42.734;23.298;2023-06-22T14:14:35;13.05;;;8.95;;
22937;SDS011;11634;42.734;23.298;2023-06-22T14:17:06;14.80;;;9.10;;
22937;SDS011;11634;42.734;23.298;2023-06-22T14:19:32;10.02;;;7.93;;
22937;SDS011;11634;42.734;23.298;2023-06-22T14:21:58;9.57;;;7.53;;
22937;SDS011;11634;42.734;23.298;2023-06-22T14:24:23;8.30;;;7.47;;
22937;SDS011;11634;42.734;23.298;2023-06-22T14:26:49;9.20;;;8.25;;
22937;SDS011;11634;42.734;23.298;2023-06-22T14:29:15;11.70;;;8.40;;
22937;SDS011;11634;42.734;23.298;2023-06-22T14:31:40;9.93;;;8.63;;
22937;SDS011;11634;42.734;23.298;2023-06-22T14:34:13;10.43;;;8.13;;
22937;SDS011;11634;42.734;23.298;2023-06-22T14:36:42;12.13;;;8.50;;
22937;SDS011;11634;42.734;23.298;2023-06-22T14:39:08;12.23;;;8.63;;
22937;SDS011;11634;42.734;23.298;2023-06-22T14:41:34;11.88;;;8.68;;
22937;SDS011;11634;42.734;23.298;2023-06-22T14:44:00;18.73;;;9.52;;
22937;SDS011;11634;42.734;23.298;2023-06-22T14:46:27;11.27;;;8.27;;
22937;SDS011;11634;42.734;23.298;2023-06-22T14:48:52;11.02;;;7.85;;
22937;SDS011;11634;42.734;23.298;2023-06-22T14:51:19;12.10;;;8.15;;
22937;SDS011;11634;42.734;23.298;2023-06-22T14:53:44;8.13;;;7.30;;
22937;SDS011;11634;42.734;23.298;2023-06-22T14:56:14;11.85;;;7.75;;
22937;SDS011;11634;42.734;23.298;2023-06-22T14:59:12;10.57;;;6.97;;
22937;SDS011;11634;42.734;23.298;2023-06-22T15:01:38;8.93;;;7.82;;
22937;SDS011;11634;42.734;23.298;2023-06-22T15:04:03;8.80;;;7.90;;
22937;SDS011;11634;42.734;23.298;2023-06-22T15:06:29;8.73;;;7.78;;
22937;SDS011;11634;42.734;23.298;2023-06-22T15:08:54;10.77;;;7.50;;
22937;SDS011;11634;42.734;23.298;2023-06-22T15:11:20;11.63;;;7.85;;
22937;SDS011;11634;42.734;23.298;2023-06-22T15:13:46;12.00;;;8.63;;
22937;SDS011;11634;42.734;23.298;2023-06-22T15:16:11;10.50;;;7.95;;
22937;SDS011;11634;42.734;23.298;2023-06-22T15:18:37;11.25;;;8.50;;
22937;SDS011;11634;42.734;23.298;2023-06-22T15:21:03;11.93;;;7.72;;
22937;SDS011;11634;42.734;23.298;2023-06-22T15:23:30;8.68;;;6.72;;
22937;SDS011;11634;42.734;23.298;2023-06-22T15:25:56;9.02;;;6.13;;
22937;SDS011;11634;42.734;23.298;2023-06-22T15:28:22;7.35;;;6.57;;
22937;SDS011;11634;42.734;23.298;2023-06-22T15:30:49;7.40;;;6.32;;
22937;SDS011;11634;42.734;23.298;2023-06-22T15:33:15;9.02;;;6.97;;
22937;SDS011;11634;42.734;23.298;2023-06-22T15:35:41;10.43;;;8.02;;
22937;SDS011;11634;42.734;23.298;2023-06-22T15:38:08;10.63;;;7.53;;
22937;SDS011;11634;42.734;23.298;2023-06-22T15:40:34;10.70;;;7.47;;
22937;SDS011;11634;42.734;23.298;2023-06-22T15:42:59;8.05;;;7.22;;
22937;SDS011;11634;42.734;23.298;2023-06-22T15:45:25;9.98;;;6.93;;
22937;SDS011;11634;42.734;23.298;2023-06-22T15:47:51;8.30;;;6.68;;
22937;SDS011;11634;42.734;23.298;2023-06-22T15:50:17;10.98;;;7.07;;
22937;SDS011;11634;42.734;23.298;2023-06-22T15:52:43;10.48;;;7.00;;
22937;SDS011;11634;42.734;23.298;2023-06-22T15:55:15;10.07;;;6.68;;
22937;SDS011;11634;42.734;23.298;2023-06-22T15:57:43;10.18;;;7.05;;
22937;SDS011;11634;42.734;23.298;2023-06-22T16:00:12;11.50;;;6.88;;
22937;SDS011;11634;42.734;23.298;2023-06-22T16:02:44;8.82;;;7.05;;
22937;SDS011;11634;42.734;23.298;2023-06-22T16:05:10;10.38;;;7.63;;
22937;SDS011;11634;42.734;23.298;2023-06-22T16:07:36;8.93;;;7.30;;
22937;SDS011;11634;42.734;23.298;2023-06-22T16:10:03;11.65;;;6.93;;
22937;SDS011;11634;42.734;23.298;2023-06-22T16:12:30;9.88;;;7.35;;
22937;SDS011;11634;42.734;23.298;2023-06-22T16:14:56;9.38;;;7.22;;
22937;SDS011;11634;42.734;23.298;2023-06-22T16:17:22;11.15;;;7.95;;
22937;SDS011;11634;42.734;23.298;2023-06-22T16:19:47;11.45;;;7.68;;
22937;SDS011;11634;42.734;23.298;2023-06-22T16:22:13;8.43;;;7.53;;
22937;SDS011;11634;42.734;23.298;2023-06-22T16:24:39;10.10;;;7.45;;